sensor_id;sensor_type;location;lat;lon;timestamp;pressure;altitude;pressure_sealevel;temperature;humidity
48555;BME280;34336;48.270;16.716;2023-04-03T00:02:23;109325.25;;;18.16;64.25
48555;BME280;34336;48.270;16.716;2023-04-03T00:04:50;109325.25;;;18.16;64.26
48555;BME280;34336;48.270;16.716;2023-04-03T00:07:16;109325.25;;;18.16;64.44
48555;BME280;34336;48.270;16.716;2023-04-03T00:09:43;109325.25;;;18.16;64.69
48555;BME280;34336;48.270;16.716;2023-04-03T00:12:09;109325.25;;;18.16;64.64
48555;BME280;34336;48.270;16.716;2023-04-03T00:14:37;109325.25;;;18.16;64.51
48555;BME280;34336;48.270;16.716;2023-04-03T00:17:03;109325.25;;;18.16;64.43
48555;BME280;34336;48.270;16.716;2023-04-03T00:19:30;109325.25;;;18.16;65.20
48555;BME280;34336;48.270;16.716;2023-04-03T00:21:57;109325.25;;;18.16;64.97
48555;BME280;34336;48.270;16.716;2023-04-03T00:24:23;109325.25;;;18.16;64.64
48555;BME280;34336;48.270;16.716;2023-04-03T00:26:50;109325.25;;;18.16;64.73
48555;BME280;34336;48.270;16.716;2023-04-03T00:29:18;109325.25;;;18.16;65.10
48555;BME280;34336;48.270;16.716;2023-04-03T00:31:45;109325.25;;;18.16;64.52
48555;BME280;34336;48.270;16.716;2023-04-03T00:34:11;109325.25;;;18.16;64.72
48555;BME280;34336;48.270;16.716;2023-04-03T00:36:38;109325.25;;;18.16;64.71
48555;BME280;34336;48.270;16.716;2023-04-03T00:39:05;109325.25;;;18.16;65.18
48555;BME280;34336;48.270;16.716;2023-04-03T00:41:32;109325.25;;;18.16;64.93
48555;BME280;34336;48.270;16.716;2023-04-03T00:43:59;109325.25;;;18.16;65.00
48555;BME280;34336;48.270;16.716;2023-04-03T00:46:25;109325.25;;;18.16;65.09
48555;BME280;34336;48.270;16.716;2023-04-03T00:48:52;109325.25;;;18.16;65.64
48555;BME280;34336;48.270;16.716;2023-04-03T00:51:25;109325.25;;;18.16;65.13
48555;BME280;34336;48.270;16.716;2023-04-03T00:53:56;109325.25;;;18.16;65.21
48555;BME280;34336;48.270;16.716;2023-04-03T00:56:25;109325.25;;;18.16;65.13
48555;BME280;34336;48.270;16.716;2023-04-03T01:01:21;109325.25;;;18.16;65.12
48555;BME280;34336;48.270;16.716;2023-04-03T01:03:49;109325.25;;;18.16;65.68
48555;BME280;34336;48.270;16.716;2023-04-03T01:06:17;109325.25;;;18.16;65.46
48555;BME280;34336;48.270;16.716;2023-04-03T01:08:47;109325.25;;;18.16;65.54
48555;BME280;34336;48.270;16.716;2023-04-03T01:11:15;109325.25;;;18.16;65.80
48555;BME280;34336;48.270;16.716;2023-04-03T01:13:43;109325.25;;;18.16;65.56
48555;BME280;34336;48.270;16.716;2023-04-03T01:16:09;109325.25;;;18.16;65.58
48555;BME280;34336;48.270;16.716;2023-04-03T01:18:37;109325.25;;;18.16;65.47
48555;BME280;34336;48.270;16.716;2023-04-03T01:26:27;109325.25;;;18.16;66.17
48555;BME280;34336;48.270;16.716;2023-04-03T01:28:55;109325.25;;;18.16;66.29
48555;BME280;34336;48.270;16.716;2023-04-03T01:31:26;109325.25;;;18.16;66.05
48555;BME280;34336;48.270;16.716;2023-04-03T01:33:55;109325.25;;;18.16;66.44
48555;BME280;34336;48.270;16.716;2023-04-03T01:36:29;109325.25;;;18.16;64.48
48555;BME280;34336;48.270;16.716;2023-04-03T01:38:57;109325.25;;;18.16;63.64
48555;BME280;34336;48.270;16.716;2023-04-03T01:41:26;109325.25;;;18.16;63.58
48555;BME280;34336;48.270;16.716;2023-04-03T01:43:58;109325.25;;;18.16;64.08
48555;BME280;34336;48.270;16.716;2023-04-03T01:46:25;109325.25;;;18.16;64.22
48555;BME280;34336;48.270;16.716;2023-04-03T01:48:51;109325.25;;;18.16;64.22
48555;BME280;34336;48.270;16.716;2023-04-03T01:51:18;109325.25;;;18.16;64.28
48555;BME280;34336;48.270;16.716;2023-04-03T01:53:44;109325.25;;;18.16;64.40
48555;BME280;34336;48.270;16.716;2023-04-03T01:56:12;109325.25;;;18.16;64.80
48555;BME280;34336;48.270;16.716;2023-04-03T01:58:38;109325.25;;;18.16;64.09
48555;BME280;34336;48.270;16.716;2023-04-03T02:01:05;109325.25;;;18.16;64.38
48555;BME280;34336;48.270;16.716;2023-04-03T02:03:33;109325.25;;;18.16;64.77
48555;BME280;34336;48.270;16.716;2023-04-03T02:06:00;109325.25;;;18.16;64.85
48555;BME280;34336;48.270;16.716;2023-04-03T02:08:27;109325.25;;;18.16;63.81
48555;BME280;34336;48.270;16.716;2023-04-03T02:10:53;109325.25;;;18.16;63.67
48555;BME280;34336;48.270;16.716;2023-04-03T02:13:20;109325.25;;;18.16;64.01
48555;BME280;34336;48.270;16.716;2023-04-03T02:15:47;109325.25;;;18.16;64.06
48555;BME280;34336;48.270;16.716;2023-04-03T02:18:16;109325.25;;;18.16;64.11
48555;BME280;34336;48.270;16.716;2023-04-03T02:20:43;109325.25;;;18.16;64.21
48555;BME280;34336;48.270;16.716;2023-04-03T02:23:10;109325.25;;;18.16;64.25
48555;BME280;34336;48.270;16.716;2023-04-03T02:25:36;109325.25;;;18.16;64.50
48555;BME280;34336;48.270;16.716;2023-04-03T02:28:04;109325.25;;;18.16;65.17
48555;BME280;34336;48.270;16.716;2023-04-03T02:30:31;109325.25;;;18.16;64.60
48555;BME280;34336;48.270;16.716;2023-04-03T02:32:58;109325.25;;;18.16;64.99
48555;BME280;34336;48.270;16.716;2023-04-03T02:35:25;109325.25;;;18.16;64.99
48555;BME280;34336;48.270;16.716;2023-04-03T02:37:54;109325.25;;;18.16;64.83
48555;BME280;34336;48.270;16.716;2023-04-03T02:40:22;109325.25;;;18.16;64.70
48555;BME280;34336;48.270;16.716;2023-04-03T02:42:49;109325.25;;;18.16;64.38
48555;BME280;34336;48.270;16.716;2023-04-03T02:45:17;109325.25;;;18.16;64.48
48555;BME280;34336;48.270;16.716;2023-04-03T02:47:44;109325.25;;;18.16;64.51
48555;BME280;34336;48.270;16.716;2023-04-03T02:50:11;109325.25;;;18.16;64.22
48555;BME280;34336;48.270;16.716;2023-04-03T02:52:37;109325.25;;;18.16;64.26
48555;BME280;34336;48.270;16.716;2023-04-03T02:55:04;109325.25;;;18.16;64.22
48555;BME280;34336;48.270;16.716;2023-04-03T02:57:31;109325.25;;;18.16;64.25
48555;BME280;34336;48.270;16.716;2023-04-03T02:59:58;109325.25;;;18.16;64.48
48555;BME280;34336;48.270;16.716;2023-04-03T03:02:25;109325.25;;;18.16;64.11
48555;BME280;34336;48.270;16.716;2023-04-03T03:04:51;109325.25;;;18.16;64.56
48555;BME280;34336;48.270;16.716;2023-04-03T03:07:18;109325.25;;;18.16;64.43
48555;BME280;34336;48.270;16.716;2023-04-03T03:09:45;109325.25;;;18.16;64.55
48555;BME280;34336;48.270;16.716;2023-04-03T03:12:11;109325.25;;;18.16;64.83
48555;BME280;34336;48.270;16.716;2023-04-03T03:14:38;109325.25;;;18.16;64.81
48555;BME280;34336;48.270;16.716;2023-04-03T03:17:05;109325.25;;;18.16;65.33
48555;BME280;34336;48.270;16.716;2023-04-03T03:19:32;109325.25;;;18.16;65.63
48555;BME280;34336;48.270;16.716;2023-04-03T03:21:59;109325.25;;;18.16;65.65
48555;BME280;34336;48.270;16.716;2023-04-03T03:24:25;109325.25;;;18.16;65.23
48555;BME280;34336;48.270;16.716;2023-04-03T03:26:52;109325.25;;;18.16;64.96
48555;BME280;34336;48.270;16.716;2023-04-03T03:29:19;109325.25;;;18.16;64.49
48555;BME280;34336;48.270;16.716;2023-04-03T03:31:46;109325.25;;;18.16;64.87
48555;BME280;34336;48.270;16.716;2023-04-03T03:34:12;109325.25;;;18.16;64.56
48555;BME280;34336;48.270;16.716;2023-04-03T03:36:39;109325.25;;;18.16;64.62
48555;BME280;34336;48.270;16.716;2023-04-03T03:39:06;109325.25;;;18.16;65.17
48555;BME280;34336;48.270;16.716;2023-04-03T03:41:33;109325.25;;;18.16;64.98
48555;BME280;34336;48.270;16.716;2023-04-03T03:44:00;109325.25;;;18.16;64.90
48555;BME280;34336;48.270;16.716;2023-04-03T03:46:29;109325.25;;;18.16;65.14
48555;BME280;34336;48.270;16.716;2023-04-03T03:48:56;109325.25;;;18.16;65.30
48555;BME280;34336;48.270;16.716;2023-04-03T03:51:23;109325.25;;;18.16;65.84
48555;BME280;34336;48.270;16.716;2023-04-03T03:53:50;109325.25;;;18.16;66.40
48555;BME280;34336;48.270;16.716;2023-04-03T03:56:18;109325.25;;;18.16;66.60
48555;BME280;34336;48.270;16.716;2023-04-03T03:58:45;109325.25;;;18.16;66.75
48555;BME280;34336;48.270;16.716;2023-04-03T04:01:12;109325.25;;;18.16;66.26
48555;BME280;34336;48.270;16.716;2023-04-03T04:03:46;109325.25;;;18.16;65.66
48555;BME280;34336;48.270;16.716;2023-04-03T04:06:17;109325.25;;;18.16;65.30
48555;BME280;34336;48.270;16.716;2023-04-03T04:08:44;109325.25;;;18.16;66.07
48555;BME280;34336;48.270;16.716;2023-04-03T04:11:12;109325.25;;;18.16;66.01
48555;BME280;34336;48.270;16.716;2023-04-03T04:13:40;109325.25;;;18.16;64.99
48555;BME280;34336;48.270;16.716;2023-04-03T04:16:09;109325.25;;;18.16;64.93
48555;BME280;34336;48.270;16.716;2023-04-03T04:18:37;109325.25;;;18.16;64.73
48555;BME280;34336;48.270;16.716;2023-04-03T04:21:04;109325.25;;;18.16;64.86
48555;BME280;34336;48.270;16.716;2023-04-03T04:23:31;109325.25;;;18.16;65.12
48555;BME280;34336;48.270;16.716;2023-04-03T04:25:59;109325.25;;;18.16;65.49
48555;BME280;34336;48.270;16.716;2023-04-03T04:28:28;109325.25;;;18.16;65.26
48555;BME280;34336;48.270;16.716;2023-04-03T04:30:57;109325.25;;;18.16;65.23
48555;BME280;34336;48.270;16.716;2023-04-03T04:33:26;109325.25;;;18.16;65.51
48555;BME280;34336;48.270;16.716;2023-04-03T04:35:55;109325.25;;;18.16;65.57
48555;BME280;34336;48.270;16.716;2023-04-03T04:38:21;109325.25;;;18.16;64.99
48555;BME280;34336;48.270;16.716;2023-04-03T04:40:50;109325.25;;;18.16;64.51
48555;BME280;34336;48.270;16.716;2023-04-03T04:43:18;109325.25;;;18.16;63.84
48555;BME280;34336;48.270;16.716;2023-04-03T04:45:47;109325.25;;;18.16;63.53
48555;BME280;34336;48.270;16.716;2023-04-03T04:48:17;109325.25;;;18.16;63.85
48555;BME280;34336;48.270;16.716;2023-04-03T04:50:44;109325.25;;;18.16;63.84
48555;BME280;34336;48.270;16.716;2023-04-03T04:53:11;109325.25;;;18.16;63.96
48555;BME280;34336;48.270;16.716;2023-04-03T04:55:38;109325.25;;;18.16;63.43
48555;BME280;34336;48.270;16.716;2023-04-03T04:58:05;109325.25;;;18.16;63.59
48555;BME280;34336;48.270;16.716;2023-04-03T05:00:33;109325.25;;;18.16;64.02
48555;BME280;34336;48.270;16.716;2023-04-03T05:03:00;109325.25;;;18.16;64.47
48555;BME280;34336;48.270;16.716;2023-04-03T05:05:27;109325.25;;;18.16;65.50
48555;BME280;34336;48.270;16.716;2023-04-03T05:07:54;109325.25;;;18.16;65.88
48555;BME280;34336;48.270;16.716;2023-04-03T05:10:21;109325.25;;;18.16;66.53
48555;BME280;34336;48.270;16.716;2023-04-03T05:12:47;109325.25;;;18.16;67.19
48555;BME280;34336;48.270;16.716;2023-04-03T05:15:14;109325.25;;;18.16;67.43
48555;BME280;34336;48.270;16.716;2023-04-03T05:17:41;109325.25;;;18.16;67.21
48555;BME280;34336;48.270;16.716;2023-04-03T05:20:11;109325.25;;;18.16;66.65
48555;BME280;34336;48.270;16.716;2023-04-03T05:22:38;109325.25;;;18.16;66.29
48555;BME280;34336;48.270;16.716;2023-04-03T05:25:08;109325.25;;;18.16;66.25
48555;BME280;34336;48.270;16.716;2023-04-03T05:27:35;109325.25;;;18.16;66.12
48555;BME280;34336;48.270;16.716;2023-04-03T05:30:02;109325.25;;;18.16;65.22
48555;BME280;34336;48.270;16.716;2023-04-03T05:32:31;109325.25;;;18.16;65.30
48555;BME280;34336;48.270;16.716;2023-04-03T05:35:16;109325.25;;;18.16;65.44
48555;BME280;34336;48.270;16.716;2023-04-03T05:37:45;109325.25;;;18.16;65.15
48555;BME280;34336;48.270;16.716;2023-04-03T05:40:13;109325.25;;;18.16;64.47
48555;BME280;34336;48.270;16.716;2023-04-03T05:42:44;109325.25;;;18.16;64.80
48555;BME280;34336;48.270;16.716;2023-04-03T05:45:11;109325.25;;;18.16;64.18
48555;BME280;34336;48.270;16.716;2023-04-03T05:47:38;109325.25;;;18.16;64.09
48555;BME280;34336;48.270;16.716;2023-04-03T05:50:06;109325.25;;;18.16;63.61
48555;BME280;34336;48.270;16.716;2023-04-03T05:52:33;109325.25;;;18.16;63.79
48555;BME280;34336;48.270;16.716;2023-04-03T05:55:02;109325.25;;;18.16;63.85
48555;BME280;34336;48.270;16.716;2023-04-03T05:57:32;109325.25;;;18.16;63.74
48555;BME280;34336;48.270;16.716;2023-04-03T05:59:58;109325.25;;;18.16;64.11
48555;BME280;34336;48.270;16.716;2023-04-03T06:02:25;109325.25;;;18.16;64.75
48555;BME280;34336;48.270;16.716;2023-04-03T06:04:53;109325.25;;;18.16;65.49
48555;BME280;34336;48.270;16.716;2023-04-03T06:07:20;109325.25;;;18.16;65.65
48555;BME280;34336;48.270;16.716;2023-04-03T06:09:49;109325.25;;;18.16;65.42
48555;BME280;34336;48.270;16.716;2023-04-03T06:12:17;109325.25;;;18.16;65.39
48555;BME280;34336;48.270;16.716;2023-04-03T06:14:44;109325.25;;;18.16;65.20
48555;BME280;34336;48.270;16.716;2023-04-03T06:17:13;109325.25;;;18.16;65.41
48555;BME280;34336;48.270;16.716;2023-04-03T06:19:40;109325.25;;;18.16;65.13
48555;BME280;34336;48.270;16.716;2023-04-03T06:22:07;109325.25;;;18.16;65.49
48555;BME280;34336;48.270;16.716;2023-04-03T06:24:33;109325.25;;;18.16;65.04
48555;BME280;34336;48.270;16.716;2023-04-03T06:27:00;109325.25;;;18.16;64.65
48555;BME280;34336;48.270;16.716;2023-04-03T06:29:27;109325.25;;;18.16;64.77
48555;BME280;34336;48.270;16.716;2023-04-03T06:31:53;109325.25;;;18.16;64.51
48555;BME280;34336;48.270;16.716;2023-04-03T06:34:20;109325.25;;;18.16;64.48
48555;BME280;34336;48.270;16.716;2023-04-03T06:36:46;109325.25;;;18.16;63.64
48555;BME280;34336;48.270;16.716;2023-04-03T06:39:14;109325.25;;;18.16;63.80
48555;BME280;34336;48.270;16.716;2023-04-03T06:41:41;109325.25;;;18.16;62.40
48555;BME280;34336;48.270;16.716;2023-04-03T06:44:08;109325.25;;;18.16;61.71
48555;BME280;34336;48.270;16.716;2023-04-03T06:46:37;109325.25;;;18.16;61.58
48555;BME280;34336;48.270;16.716;2023-04-03T06:49:05;109325.25;;;18.16;60.58
48555;BME280;34336;48.270;16.716;2023-04-03T06:51:33;109325.25;;;18.16;60.79
48555;BME280;34336;48.270;16.716;2023-04-03T06:54:01;109325.25;;;18.16;59.32
48555;BME280;34336;48.270;16.716;2023-04-03T06:56:28;109325.25;;;18.16;57.95
48555;BME280;34336;48.270;16.716;2023-04-03T06:58:55;109325.25;;;18.16;56.19
48555;BME280;34336;48.270;16.716;2023-04-03T07:01:24;109325.25;;;18.16;56.14
48555;BME280;34336;48.270;16.716;2023-04-03T07:03:52;109325.25;;;18.16;54.40
48555;BME280;34336;48.270;16.716;2023-04-03T07:06:19;109325.25;;;18.16;54.66
48555;BME280;34336;48.270;16.716;2023-04-03T07:08:46;109325.25;;;18.16;53.52
48555;BME280;34336;48.270;16.716;2023-04-03T07:11:14;109325.25;;;18.16;52.23
48555;BME280;34336;48.270;16.716;2023-04-03T07:13:41;109325.25;;;18.16;52.58
48555;BME280;34336;48.270;16.716;2023-04-03T07:16:08;109325.25;;;18.16;52.84
48555;BME280;34336;48.270;16.716;2023-04-03T07:18:35;109325.25;;;18.16;52.73
48555;BME280;34336;48.270;16.716;2023-04-03T07:21:02;109325.25;;;18.16;52.73
48555;BME280;34336;48.270;16.716;2023-04-03T07:23:29;109325.25;;;18.16;52.82
48555;BME280;34336;48.270;16.716;2023-04-03T07:25:56;109325.25;;;18.16;52.09
48555;BME280;34336;48.270;16.716;2023-04-03T07:28:23;109325.25;;;18.16;52.02
48555;BME280;34336;48.270;16.716;2023-04-03T07:30:51;109325.25;;;18.16;50.43
48555;BME280;34336;48.270;16.716;2023-04-03T07:33:19;109325.25;;;18.16;50.06
48555;BME280;34336;48.270;16.716;2023-04-03T07:35:46;109325.25;;;18.16;49.62
48555;BME280;34336;48.270;16.716;2023-04-03T07:38:12;109325.25;;;18.16;49.79
48555;BME280;34336;48.270;16.716;2023-04-03T07:40:39;109325.25;;;18.16;48.29
48555;BME280;34336;48.270;16.716;2023-04-03T07:43:06;109325.25;;;18.16;46.84
48555;BME280;34336;48.270;16.716;2023-04-03T07:45:34;109325.25;;;18.16;46.42
48555;BME280;34336;48.270;16.716;2023-04-03T07:48:01;109325.25;;;18.16;45.30
48555;BME280;34336;48.270;16.716;2023-04-03T07:50:28;109325.25;;;18.16;44.69
48555;BME280;34336;48.270;16.716;2023-04-03T07:52:56;109325.25;;;18.16;44.20
48555;BME280;34336;48.270;16.716;2023-04-03T07:55:24;109325.25;;;18.16;42.65
48555;BME280;34336;48.270;16.716;2023-04-03T07:57:51;109325.25;;;18.16;43.67
48555;BME280;34336;48.270;16.716;2023-04-03T08:00:17;109325.25;;;18.16;41.98
48555;BME280;34336;48.270;16.716;2023-04-03T08:02:46;109325.25;;;18.16;44.28
48555;BME280;34336;48.270;16.716;2023-04-03T08:05:18;109325.25;;;18.16;43.09
48555;BME280;34336;48.270;16.716;2023-04-03T08:07:45;109325.25;;;18.16;44.33
48555;BME280;34336;48.270;16.716;2023-04-03T08:10:13;109325.25;;;18.16;46.97
48555;BME280;34336;48.270;16.716;2023-04-03T08:12:39;109325.25;;;18.16;47.51
48555;BME280;34336;48.270;16.716;2023-04-03T08:15:07;109325.25;;;18.16;47.34
48555;BME280;34336;48.270;16.716;2023-04-03T08:17:34;109325.25;;;18.16;47.29
48555;BME280;34336;48.270;16.716;2023-04-03T08:20:02;109325.25;;;18.16;48.20
48555;BME280;34336;48.270;16.716;2023-04-03T08:22:29;109325.25;;;18.16;48.14
48555;BME280;34336;48.270;16.716;2023-04-03T08:24:56;109325.25;;;18.16;47.95
48555;BME280;34336;48.270;16.716;2023-04-03T08:27:25;109325.25;;;18.16;46.42
48555;BME280;34336;48.270;16.716;2023-04-03T08:29:53;109325.25;;;18.16;45.79
48555;BME280;34336;48.270;16.716;2023-04-03T08:32:20;109325.25;;;18.16;44.93
48555;BME280;34336;48.270;16.716;2023-04-03T08:34:47;109325.25;;;18.16;43.62
48555;BME280;34336;48.270;16.716;2023-04-03T08:37:14;109325.25;;;18.16;44.54
48555;BME280;34336;48.270;16.716;2023-04-03T08:39:42;109325.25;;;18.16;45.38
48555;BME280;34336;48.270;16.716;2023-04-03T08:49:57;109325.25;;;18.16;48.03
48555;BME280;34336;48.270;16.716;2023-04-03T08:53:09;109325.25;;;18.16;47.71
48555;BME280;34336;48.270;16.716;2023-04-03T08:57:47;109325.25;;;18.16;46.21
48555;BME280;34336;48.270;16.716;2023-04-03T09:05:15;109325.25;;;18.16;44.21
48555;BME280;34336;48.270;16.716;2023-04-03T09:07:46;109325.25;;;18.16;45.42
48555;BME280;34336;48.270;16.716;2023-04-03T09:10:15;109325.25;;;18.16;44.84
48555;BME280;34336;48.270;16.716;2023-04-03T09:12:46;109325.25;;;18.16;44.51
48555;BME280;34336;48.270;16.716;2023-04-03T09:15:23;109325.25;;;18.16;44.15
48555;BME280;34336;48.270;16.716;2023-04-03T09:18:05;109325.25;;;18.16;43.99
48555;BME280;34336;48.270;16.716;2023-04-03T09:23:00;109325.25;;;18.16;41.64
48555;BME280;34336;48.270;16.716;2023-04-03T09:25:29;109325.25;;;18.16;43.21
48555;BME280;34336;48.270;16.716;2023-04-03T09:27:59;109325.25;;;18.16;42.15
48555;BME280;34336;48.270;16.716;2023-04-03T09:30:27;109325.25;;;18.16;41.27
48555;BME280;34336;48.270;16.716;2023-04-03T09:32:57;109325.25;;;18.16;41.64
48555;BME280;34336;48.270;16.716;2023-04-03T09:35:25;109325.25;;;18.16;41.61
48555;BME280;34336;48.270;16.716;2023-04-03T09:40:39;109325.25;;;18.16;41.30
48555;BME280;34336;48.270;16.716;2023-04-03T09:43:20;109325.25;;;18.16;40.16
48555;BME280;34336;48.270;16.716;2023-04-03T09:45:47;109325.25;;;18.16;41.27
48555;BME280;34336;48.270;16.716;2023-04-03T09:55:52;109325.25;;;18.16;41.44
48555;BME280;34336;48.270;16.716;2023-04-03T09:58:26;109325.25;;;18.16;40.54
48555;BME280;34336;48.270;16.716;2023-04-03T10:01:20;109325.25;;;18.16;40.93
48555;BME280;34336;48.270;16.716;2023-04-03T10:03:47;109325.25;;;18.16;41.87
48555;BME280;34336;48.270;16.716;2023-04-03T10:06:29;109325.25;;;18.16;40.87
48555;BME280;34336;48.270;16.716;2023-04-03T10:09:01;109325.25;;;18.16;41.87
48555;BME280;34336;48.270;16.716;2023-04-03T10:11:30;109325.25;;;18.16;41.24
48555;BME280;34336;48.270;16.716;2023-04-03T10:13:58;109325.25;;;18.16;40.34
48555;BME280;34336;48.270;16.716;2023-04-03T10:16:36;109325.25;;;18.16;40.41
48555;BME280;34336;48.270;16.716;2023-04-03T10:19:20;109325.25;;;18.16;39.49
48555;BME280;34336;48.270;16.716;2023-04-03T10:21:57;109325.25;;;18.16;39.06
48555;BME280;34336;48.270;16.716;2023-04-03T10:24:28;109325.25;;;18.16;38.67
48555;BME280;34336;48.270;16.716;2023-04-03T10:27:01;109325.25;;;18.16;37.58
48555;BME280;34336;48.270;16.716;2023-04-03T10:34:49;109325.25;;;18.16;38.42
48555;BME280;34336;48.270;16.716;2023-04-03T10:37:33;109325.25;;;18.16;39.87
48555;BME280;34336;48.270;16.716;2023-04-03T10:42:39;109325.25;;;18.16;41.40
48555;BME280;34336;48.270;16.716;2023-04-03T10:45:27;109325.25;;;18.16;39.54
48555;BME280;34336;48.270;16.716;2023-04-03T10:50:39;109325.25;;;18.16;37.94
48555;BME280;34336;48.270;16.716;2023-04-03T10:58:16;109325.25;;;18.16;35.91
48555;BME280;34336;48.270;16.716;2023-04-03T11:00:45;109325.25;;;18.16;36.47
48555;BME280;34336;48.270;16.716;2023-04-03T11:03:57;109325.25;;;18.16;37.60
48555;BME280;34336;48.270;16.716;2023-04-03T11:06:05;109325.25;;;18.16;39.42
48555;BME280;34336;48.270;16.716;2023-04-03T11:08:35;109325.25;;;18.16;41.20
48555;BME280;34336;48.270;16.716;2023-04-03T11:11:07;109325.25;;;18.16;40.54
48555;BME280;34336;48.270;16.716;2023-04-03T11:13:42;109325.25;;;18.16;41.59
48555;BME280;34336;48.270;16.716;2023-04-03T11:16:12;109325.25;;;18.16;42.95
48555;BME280;34336;48.270;16.716;2023-04-03T11:18:43;109325.25;;;18.16;40.88
48555;BME280;34336;48.270;16.716;2023-04-03T11:21:17;109325.25;;;18.16;40.32
48555;BME280;34336;48.270;16.716;2023-04-03T11:23:46;109325.25;;;18.16;39.68
48555;BME280;34336;48.270;16.716;2023-04-03T11:26:19;109325.25;;;18.16;38.52
48555;BME280;34336;48.270;16.716;2023-04-03T11:28:52;109325.25;;;18.16;37.72
48555;BME280;34336;48.270;16.716;2023-04-03T11:34:08;109325.25;;;18.16;38.24
48555;BME280;34336;48.270;16.716;2023-04-03T11:36:42;109325.25;;;18.16;38.00
48555;BME280;34336;48.270;16.716;2023-04-03T11:39:46;109325.25;;;18.16;38.39
48555;BME280;34336;48.270;16.716;2023-04-03T11:44:41;109325.25;;;18.16;38.73
48555;BME280;34336;48.270;16.716;2023-04-03T11:47:08;109325.25;;;18.16;38.84
48555;BME280;34336;48.270;16.716;2023-04-03T11:49:51;109325.25;;;18.16;38.80
48555;BME280;34336;48.270;16.716;2023-04-03T11:57:45;109325.25;;;18.16;37.20
48555;BME280;34336;48.270;16.716;2023-04-03T12:02:58;109325.25;;;18.16;37.80
48555;BME280;34336;48.270;16.716;2023-04-03T12:05:26;109325.25;;;18.16;37.94
48555;BME280;34336;48.270;16.716;2023-04-03T12:08:54;109325.25;;;18.16;37.70
48555;BME280;34336;48.270;16.716;2023-04-03T12:11:24;109325.25;;;18.16;38.34
48555;BME280;34336;48.270;16.716;2023-04-03T12:16:19;109325.25;;;18.16;38.68
48555;BME280;34336;48.270;16.716;2023-04-03T12:29:21;109325.25;;;18.16;37.62
48555;BME280;34336;48.270;16.716;2023-04-03T12:37:03;109325.25;;;18.16;39.15
48555;BME280;34336;48.270;16.716;2023-04-03T12:39:36;109325.25;;;18.16;38.68
48555;BME280;34336;48.270;16.716;2023-04-03T12:44:40;109325.25;;;18.16;38.06
48555;BME280;34336;48.270;16.716;2023-04-03T12:47:53;109325.25;;;18.16;38.28
48555;BME280;34336;48.270;16.716;2023-04-03T12:49:59;109325.25;;;18.16;38.02
48555;BME280;34336;48.270;16.716;2023-04-03T12:52:41;109325.25;;;18.16;37.78
48555;BME280;34336;48.270;16.716;2023-04-03T12:55:18;109325.25;;;18.16;38.46
48555;BME280;34336;48.270;16.716;2023-04-03T12:57:46;109325.25;;;18.16;37.69
48555;BME280;34336;48.270;16.716;2023-04-03T13:00:20;109325.25;;;18.16;37.59
48555;BME280;34336;48.270;16.716;2023-04-03T13:02:48;109325.25;;;18.16;38.33
48555;BME280;34336;48.270;16.716;2023-04-03T13:05:17;109325.25;;;18.16;38.76
48555;BME280;34336;48.270;16.716;2023-04-03T13:07:47;109325.25;;;18.16;38.65
48555;BME280;34336;48.270;16.716;2023-04-03T13:10:16;109325.25;;;18.16;38.37
48555;BME280;34336;48.270;16.716;2023-04-03T13:12:56;109325.25;;;18.16;38.20
48555;BME280;34336;48.270;16.716;2023-04-03T13:15:24;109325.25;;;18.16;38.07
48555;BME280;34336;48.270;16.716;2023-04-03T13:17:52;109325.25;;;18.16;37.57
48555;BME280;34336;48.270;16.716;2023-04-03T13:25:15;109325.25;;;18.16;39.21
48555;BME280;34336;48.270;16.716;2023-04-03T13:27:43;109325.25;;;18.16;38.33
48555;BME280;34336;48.270;16.716;2023-04-03T13:30:30;109325.25;;;18.16;36.75
48555;BME280;34336;48.270;16.716;2023-04-03T13:32:59;109325.25;;;18.16;37.19
48555;BME280;34336;48.270;16.716;2023-04-03T13:37:57;109325.25;;;18.16;37.83
48555;BME280;34336;48.270;16.716;2023-04-03T13:40:24;109325.25;;;18.16;37.78
48555;BME280;34336;48.270;16.716;2023-04-03T13:43:02;109325.25;;;18.16;37.01
48555;BME280;34336;48.270;16.716;2023-04-03T13:45:29;109325.25;;;18.16;36.30
48555;BME280;34336;48.270;16.716;2023-04-03T13:53:19;109325.25;;;18.16;36.21
48555;BME280;34336;48.270;16.716;2023-04-03T13:55:53;109325.25;;;18.16;36.63
48555;BME280;34336;48.270;16.716;2023-04-03T13:58:23;109325.25;;;18.16;36.58
48555;BME280;34336;48.270;16.716;2023-04-03T14:01:10;109325.25;;;18.16;36.62
48555;BME280;34336;48.270;16.716;2023-04-03T14:06:08;109325.25;;;18.16;36.96
48555;BME280;34336;48.270;16.716;2023-04-03T14:08:36;109325.25;;;18.16;36.72
48555;BME280;34336;48.270;16.716;2023-04-03T14:11:11;109325.25;;;18.16;37.03
48555;BME280;34336;48.270;16.716;2023-04-03T14:13:39;109325.25;;;18.16;37.10
48555;BME280;34336;48.270;16.716;2023-04-03T14:16:06;109325.25;;;18.16;37.43
48555;BME280;34336;48.270;16.716;2023-04-03T14:18:41;109325.25;;;18.16;38.52
48555;BME280;34336;48.270;16.716;2023-04-03T14:21:10;109325.25;;;18.16;38.81
48555;BME280;34336;48.270;16.716;2023-04-03T14:23:37;109325.25;;;18.16;38.76
48555;BME280;34336;48.270;16.716;2023-04-03T14:26:08;109325.25;;;18.16;38.15
48555;BME280;34336;48.270;16.716;2023-04-03T14:28:37;109325.25;;;18.16;37.86
48555;BME280;34336;48.270;16.716;2023-04-03T14:31:03;109325.25;;;18.16;37.01
48555;BME280;34336;48.270;16.716;2023-04-03T14:33:30;109325.25;;;18.16;37.96